createdAt,value
2023-03-29T00:00:15.378Z,13.53
2023-03-29T00:02:48.592Z,13.52
2023-03-29T00:05:23.248Z,13.51
2023-03-29T00:08:02.070Z,13.51
2023-03-29T00:10:35.131Z,13.50
2023-03-29T00:13:06.418Z,13.50
2023-03-29T00:15:37.653Z,13.50
2023-03-29T00:18:09.292Z,13.50
2023-03-29T00:20:41.073Z,13.50
2023-03-29T00:23:12.346Z,13.51
2023-03-29T00:25:48.249Z,13.52
2023-03-29T00:28:19.772Z,13.52
2023-03-29T00:30:51.546Z,13.52
2023-03-29T00:33:23.939Z,13.53
2023-03-29T00:35:55.663Z,13.53
2023-03-29T00:38:27.270Z,13.54
2023-03-29T00:40:58.653Z,13.55
2023-03-29T00:43:30.589Z,13.55
2023-03-29T00:46:01.655Z,13.54
2023-03-29T00:48:33.278Z,13.55
2023-03-29T00:51:09.874Z,13.55
2023-03-29T00:53:44.499Z,13.54
2023-03-29T00:56:20.623Z,13.53
2023-03-29T00:58:56.457Z,13.52
2023-03-29T01:01:34.212Z,13.51
2023-03-29T01:04:10.244Z,13.51
2023-03-29T01:06:45.360Z,13.51
2023-03-29T01:09:20.412Z,13.50
2023-03-29T01:11:56.047Z,13.50
2023-03-29T01:14:34.476Z,13.50
2023-03-29T01:17:06.736Z,13.50
2023-03-29T01:19:46.721Z,13.50
2023-03-29T01:22:26.130Z,13.50
2023-03-29T01:25:07.756Z,13.50
2023-03-29T01:27:52.572Z,13.50
2023-03-29T01:30:30.660Z,13.50
2023-03-29T01:33:07.651Z,13.50
2023-03-29T01:35:44.001Z,13.51
2023-03-29T01:38:21.834Z,13.51
2023-03-29T01:40:53.515Z,13.51
2023-03-29T01:43:29.048Z,13.50
2023-03-29T01:46:06.348Z,13.50
2023-03-29T01:48:47.835Z,13.49
2023-03-29T01:51:26.460Z,13.48
2023-03-29T01:54:02.206Z,13.46
2023-03-29T01:56:38.849Z,13.44
2023-03-29T01:59:16.243Z,13.41
2023-03-29T02:01:52.218Z,13.39
2023-03-29T02:04:30.006Z,13.38
2023-03-29T02:07:04.411Z,13.38
2023-03-29T02:09:38.197Z,13.38
2023-03-29T02:12:12.138Z,13.38
2023-03-29T02:14:43.792Z,13.37
2023-03-29T02:17:23.202Z,13.37
2023-03-29T02:19:59.461Z,13.37
2023-03-29T02:22:38.006Z,13.37
2023-03-29T02:25:10.844Z,13.36
2023-03-29T02:27:43.071Z,13.36
2023-03-29T02:30:18.409Z,13.36
2023-03-29T02:32:58.041Z,13.36
2023-03-29T02:35:36.302Z,13.36
2023-03-29T02:38:10.615Z,13.37
2023-03-29T02:40:43.349Z,13.37
2023-03-29T02:43:17.245Z,13.36
2023-03-29T02:45:48.907Z,13.36
2023-03-29T02:48:22.602Z,13.36
2023-03-29T02:50:56.695Z,13.37
2023-03-29T02:53:34.019Z,13.36
2023-03-29T02:56:06.393Z,13.34
2023-03-29T02:58:37.478Z,13.34
2023-03-29T03:01:11.454Z,13.35
2023-03-29T03:03:43.219Z,13.36
2023-03-29T03:06:15.417Z,13.37
2023-03-29T03:08:46.794Z,13.39
2023-03-29T03:11:18.868Z,13.40
2023-03-29T03:13:51.688Z,13.41
2023-03-29T03:16:22.903Z,13.42
2023-03-29T03:18:54.953Z,13.42
2023-03-29T03:21:28.325Z,13.42
2023-03-29T03:23:59.854Z,13.42
2023-03-29T03:26:31.260Z,13.43
2023-03-29T03:29:02.178Z,13.43
2023-03-29T03:31:54.040Z,13.41
2023-03-29T03:34:44.318Z,13.39
2023-03-29T03:37:15.860Z,13.38
2023-03-29T03:39:48.013Z,13.38
2023-03-29T03:42:19.801Z,13.37
2023-03-29T03:44:51.895Z,13.35
2023-03-29T03:47:49.103Z,13.34
2023-03-29T03:50:40.197Z,13.31
2023-03-29T03:53:14.670Z,13.28
2023-03-29T03:56:09.146Z,13.25
2023-03-29T03:58:50.609Z,13.22
2023-03-29T04:01:22.258Z,13.21
2023-03-29T04:03:59.888Z,13.20
2023-03-29T04:06:32.660Z,13.19
2023-03-29T04:09:23.650Z,13.19
2023-03-29T04:12:07.157Z,13.19
2023-03-29T04:14:38.724Z,13.20
2023-03-29T04:17:13.589Z,13.21
2023-03-29T04:20:13.570Z,13.23
2023-03-29T04:22:45.063Z,13.22
2023-03-29T04:25:16.912Z,13.23
2023-03-29T04:27:54.181Z,13.24
2023-03-29T04:30:42.731Z,13.24
2023-03-29T04:33:21.603Z,13.24
2023-03-29T04:35:58.547Z,13.23
2023-03-29T04:38:30.206Z,13.23
2023-03-29T04:41:04.023Z,13.23
2023-03-29T04:43:48.757Z,13.23
2023-03-29T04:46:28.172Z,13.23
2023-03-29T04:49:18.295Z,13.22
2023-03-29T04:51:53.359Z,13.25
2023-03-29T04:54:26.712Z,13.33
2023-03-29T04:57:07.380Z,13.41
2023-03-29T04:59:57.362Z,13.50
2023-03-29T05:02:48.807Z,13.57
2023-03-29T05:05:21.184Z,13.63
2023-03-29T05:07:55.056Z,13.70
2023-03-29T05:10:31.054Z,13.79
2023-03-29T05:13:04.144Z,13.86
2023-03-29T05:15:35.752Z,13.92
2023-03-29T05:18:07.360Z,14.00
2023-03-29T05:20:40.521Z,14.21
2023-03-29T05:23:12.609Z,14.45
2023-03-29T05:26:15.396Z,14.71
2023-03-29T05:28:51.618Z,14.86
2023-03-29T05:31:23.099Z,14.94
2023-03-29T05:33:56.716Z,15.06
2023-03-29T05:36:28.530Z,15.17
2023-03-29T05:38:59.975Z,15.25
2023-03-29T05:41:32.872Z,15.33
2023-03-29T05:44:30.690Z,15.43
2023-03-29T05:47:09.253Z,15.49
2023-03-29T05:49:40.777Z,15.52
2023-03-29T05:52:21.519Z,15.53
2023-03-29T05:54:52.963Z,15.53
2023-03-29T05:57:24.742Z,15.49
2023-03-29T05:59:56.688Z,15.51
2023-03-29T06:02:29.705Z,15.48
2023-03-29T06:05:03.513Z,15.39
2023-03-29T06:07:44.079Z,15.29
2023-03-29T06:10:37.295Z,15.42
2023-03-29T06:13:31.204Z,15.59
2023-03-29T06:16:02.259Z,15.66
2023-03-29T06:18:33.742Z,15.60
2023-03-29T06:21:05.769Z,15.50
2023-03-29T06:23:37.534Z,15.44
2023-03-29T06:26:10.703Z,15.33
2023-03-29T06:28:43.097Z,15.22
2023-03-29T06:31:14.718Z,15.12
2023-03-29T06:33:46.915Z,15.04
2023-03-29T06:36:28.317Z,14.97
2023-03-29T06:39:00.047Z,14.92
2023-03-29T06:42:12.949Z,14.86
2023-03-29T06:45:09.758Z,14.81
2023-03-29T06:47:42.183Z,14.79
2023-03-29T06:50:14.808Z,14.77
2023-03-29T06:53:01.744Z,14.71
2023-03-29T06:55:34.668Z,14.70
2023-03-29T06:58:15.781Z,14.69
2023-03-29T07:00:48.232Z,14.71
2023-03-29T07:03:26.036Z,14.73
2023-03-29T07:06:04.644Z,14.74
2023-03-29T07:08:40.754Z,14.76
2023-03-29T07:11:19.130Z,14.80
2023-03-29T07:13:58.072Z,14.83
2023-03-29T07:16:30.574Z,14.85
2023-03-29T07:19:12.824Z,14.88
2023-03-29T07:21:56.290Z,14.91
2023-03-29T07:24:36.097Z,14.93
2023-03-29T07:27:07.465Z,14.95
2023-03-29T07:29:39.549Z,14.98
2023-03-29T07:32:11.509Z,15.03
2023-03-29T07:34:42.946Z,15.06
2023-03-29T07:37:20.089Z,15.10
2023-03-29T07:39:52.120Z,15.14
2023-03-29T07:42:57.073Z,15.18
2023-03-29T07:45:29.831Z,15.24
2023-03-29T07:48:08.627Z,15.32
2023-03-29T07:51:02.857Z,15.40
2023-03-29T07:53:40.078Z,15.46
2023-03-29T07:56:17.695Z,15.51
2023-03-29T07:58:57.342Z,15.55
2023-03-29T08:01:28.759Z,15.55
2023-03-29T08:04:18.504Z,15.60
2023-03-29T08:07:09.245Z,15.62
2023-03-29T08:10:15.367Z,15.64
2023-03-29T08:13:13.505Z,15.63
2023-03-29T08:16:16.938Z,15.64
2023-03-29T08:18:54.364Z,15.67
2023-03-29T08:21:26.750Z,15.72
2023-03-29T08:23:58.054Z,15.76
2023-03-29T08:26:42.038Z,15.79
2023-03-29T08:29:13.904Z,15.78
2023-03-29T08:31:45.260Z,15.78
2023-03-29T08:34:17.424Z,15.77
2023-03-29T08:37:02.241Z,15.74
2023-03-29T08:39:41.907Z,15.70
2023-03-29T08:42:56.900Z,15.69
2023-03-29T08:45:39.182Z,15.70
2023-03-29T08:48:22.399Z,15.72
2023-03-29T08:50:59.285Z,15.73
2023-03-29T08:53:36.616Z,15.73
2023-03-29T08:56:35.950Z,15.75
2023-03-29T08:59:30.996Z,15.78
2023-03-29T09:02:11.475Z,15.80
2023-03-29T09:04:44.577Z,15.84
2023-03-29T09:07:34.712Z,15.89
2023-03-29T09:10:06.755Z,15.95
2023-03-29T09:12:54.891Z,16.01
2023-03-29T09:15:29.949Z,16.07
2023-03-29T09:18:26.407Z,16.11
2023-03-29T09:21:02.144Z,16.16
2023-03-29T09:23:57.059Z,16.20
2023-03-29T09:26:49.019Z,16.26
2023-03-29T09:29:48.962Z,16.30
2023-03-29T09:32:24.333Z,16.35
2023-03-29T09:35:14.455Z,16.40
2023-03-29T09:37:46.818Z,16.44
2023-03-29T09:40:23.111Z,16.49
2023-03-29T09:43:09.429Z,16.55
2023-03-29T09:45:42.281Z,16.61
2023-03-29T09:48:18.385Z,16.69
2023-03-29T09:50:57.363Z,16.78
2023-03-29T09:53:28.520Z,16.86
2023-03-29T09:56:12.075Z,16.95
2023-03-29T09:58:55.766Z,17.06
2023-03-29T10:01:37.306Z,17.17
2023-03-29T10:04:11.511Z,17.31
2023-03-29T10:06:49.292Z,17.41
2023-03-29T10:09:24.362Z,17.51
2023-03-29T10:12:03.344Z,17.65
2023-03-29T10:14:38.197Z,17.77
2023-03-29T10:17:18.104Z,17.88
2023-03-29T10:19:54.320Z,17.93
2023-03-29T10:22:28.633Z,17.98
2023-03-29T10:25:00.003Z,17.99
2023-03-29T10:27:34.866Z,18.06
2023-03-29T10:30:20.520Z,18.16
2023-03-29T10:32:56.858Z,18.26
2023-03-29T10:35:34.219Z,18.31
2023-03-29T10:38:12.182Z,18.39
2023-03-29T10:40:47.506Z,18.53
2023-03-29T10:43:25.748Z,18.66
2023-03-29T10:46:06.942Z,18.77
2023-03-29T10:48:38.496Z,19.03
2023-03-29T10:51:09.766Z,19.38
2023-03-29T10:53:41.289Z,19.77
2023-03-29T10:56:41.466Z,20.14
2023-03-29T10:59:23.244Z,20.58
2023-03-29T11:02:09.238Z,20.87
2023-03-29T11:04:47.657Z,21.14
2023-03-29T11:07:30.745Z,21.33
2023-03-29T11:10:15.983Z,21.48
2023-03-29T11:12:55.380Z,21.58
2023-03-29T11:15:39.907Z,21.62
2023-03-29T11:18:35.482Z,21.62
2023-03-29T11:21:15.013Z,21.55
2023-03-29T11:23:58.108Z,21.47
2023-03-29T11:26:38.013Z,21.41
2023-03-29T11:29:16.338Z,21.37
2023-03-29T11:32:00.295Z,21.28
2023-03-29T11:34:37.979Z,21.16
2023-03-29T11:37:19.944Z,21.10
2023-03-29T11:40:00.939Z,21.08
2023-03-29T11:42:35.344Z,21.03
2023-03-29T11:45:12.581Z,20.99
2023-03-29T11:47:48.179Z,20.95
2023-03-29T11:50:23.255Z,20.95
2023-03-29T11:53:00.043Z,20.95
2023-03-29T11:55:34.714Z,20.87
2023-03-29T11:58:13.264Z,20.72
2023-03-29T12:00:49.987Z,20.67
2023-03-29T12:03:32.488Z,20.61
2023-03-29T12:06:09.313Z,20.59
2023-03-29T12:08:44.179Z,20.44
2023-03-29T12:11:25.628Z,20.30
2023-03-29T12:14:01.249Z,20.09
2023-03-29T12:16:37.218Z,19.97
2023-03-29T12:19:18.681Z,19.89
2023-03-29T12:21:50.881Z,19.78
2023-03-29T12:24:24.728Z,19.62
2023-03-29T12:27:16.599Z,19.48
2023-03-29T12:30:10.074Z,19.26
2023-03-29T12:32:58.548Z,19.11
2023-03-29T12:36:06.661Z,19.01
2023-03-29T12:39:12.683Z,18.96
2023-03-29T12:42:21.308Z,18.94
2023-03-29T12:45:35.215Z,18.92
2023-03-29T12:48:07.632Z,18.86
2023-03-29T12:50:46.212Z,18.82
2023-03-29T12:53:24.029Z,18.81
2023-03-29T12:56:08.933Z,18.81
2023-03-29T12:59:09.031Z,18.77
2023-03-29T13:01:42.194Z,18.73
2023-03-29T13:04:19.932Z,18.68
2023-03-29T13:07:06.069Z,18.63
2023-03-29T13:09:49.016Z,18.60
2023-03-29T13:12:27.631Z,18.56
2023-03-29T13:15:01.863Z,18.55
2023-03-29T13:17:45.332Z,18.55
2023-03-29T13:20:43.486Z,18.53
2023-03-29T13:23:28.031Z,18.50
2023-03-29T13:26:17.943Z,18.43
2023-03-29T13:29:06.465Z,18.40
2023-03-29T13:31:44.317Z,18.40
2023-03-29T13:34:32.251Z,18.38
2023-03-29T13:37:17.949Z,18.40
2023-03-29T13:39:53.642Z,18.40
2023-03-29T13:42:38.780Z,18.40
2023-03-29T13:45:17.351Z,18.36
2023-03-29T13:48:02.649Z,18.36
2023-03-29T13:50:41.763Z,18.31
2023-03-29T13:53:24.036Z,18.23
2023-03-29T13:55:56.232Z,18.19
2023-03-29T13:58:39.353Z,18.16
2023-03-29T14:01:16.589Z,18.16
2023-03-29T14:03:51.736Z,18.17
2023-03-29T14:06:28.014Z,18.12
2023-03-29T14:09:00.881Z,18.07
2023-03-29T14:11:33.073Z,18.06
2023-03-29T14:14:06.491Z,18.03
2023-03-29T14:19:34.041Z,17.94
2023-03-29T14:22:09.323Z,17.91
2023-03-29T14:24:48.241Z,17.92
2023-03-29T14:27:19.892Z,17.86
2023-03-29T14:29:53.850Z,17.83
2023-03-29T14:32:32.557Z,17.80
2023-03-29T14:35:03.637Z,17.74
2023-03-29T14:37:34.810Z,17.68
2023-03-29T14:40:12.128Z,17.58
2023-03-29T14:42:43.726Z,17.48
2023-03-29T14:45:18.126Z,17.44
2023-03-29T14:47:50.023Z,17.39
2023-03-29T14:50:25.448Z,17.34
2023-03-29T14:52:58.032Z,17.32
2023-03-29T14:55:31.098Z,17.24
2023-03-29T14:58:02.861Z,17.09
2023-03-29T15:00:43.606Z,16.93
2023-03-29T15:03:18.091Z,16.87
2023-03-29T15:05:55.652Z,16.86
2023-03-29T15:08:34.125Z,16.90
2023-03-29T15:11:13.054Z,17.00
2023-03-29T15:13:45.459Z,17.05
2023-03-29T15:16:20.274Z,17.04
2023-03-29T15:18:53.792Z,17.02
2023-03-29T15:21:30.354Z,17.03
2023-03-29T15:24:03.420Z,17.07
2023-03-29T15:26:36.956Z,17.06
2023-03-29T15:29:13.727Z,16.96
2023-03-29T15:31:55.296Z,16.89
2023-03-29T15:34:30.063Z,16.90
2023-03-29T15:37:02.472Z,16.95
2023-03-29T15:39:35.248Z,17.05
2023-03-29T15:42:07.383Z,17.10
2023-03-29T15:44:41.493Z,17.16
2023-03-29T15:47:14.477Z,17.32
2023-03-29T15:49:47.643Z,17.37
2023-03-29T15:52:18.823Z,17.25
2023-03-29T15:54:49.754Z,17.20
2023-03-29T15:57:21.921Z,17.19
2023-03-29T15:59:53.434Z,17.19
2023-03-29T16:02:26.144Z,17.17
2023-03-29T16:04:57.119Z,17.20
2023-03-29T16:07:28.248Z,17.19
2023-03-29T16:10:00.089Z,17.12
2023-03-29T16:12:31.609Z,17.09
2023-03-29T16:15:02.665Z,17.06
2023-03-29T16:17:34.466Z,17.07
2023-03-29T16:20:07.313Z,17.05
2023-03-29T16:22:38.329Z,17.03
2023-03-29T16:25:15.890Z,16.99
2023-03-29T16:27:47.092Z,16.92
2023-03-29T16:30:18.853Z,16.85
2023-03-29T16:32:49.925Z,16.83
2023-03-29T16:35:26.647Z,16.86
2023-03-29T16:37:58.335Z,16.89
2023-03-29T16:40:29.282Z,16.91
2023-03-29T16:43:00.496Z,16.87
2023-03-29T16:45:31.855Z,16.79
2023-03-29T16:48:05.470Z,16.75
2023-03-29T16:50:36.806Z,16.74
2023-03-29T16:53:07.973Z,16.73
2023-03-29T16:55:39.377Z,16.68
2023-03-29T16:58:10.421Z,16.58
2023-03-29T17:00:41.854Z,16.50
2023-03-29T17:03:13.267Z,16.43
2023-03-29T17:05:50.394Z,16.39
2023-03-29T17:08:22.606Z,16.41
2023-03-29T17:10:56.866Z,16.45
2023-03-29T17:13:28.520Z,16.49
2023-03-29T17:16:00.260Z,16.50
2023-03-29T17:18:31.392Z,16.48
2023-03-29T17:21:03.409Z,16.48
2023-03-29T17:23:34.488Z,16.50
2023-03-29T17:26:06.586Z,16.53
2023-03-29T17:28:38.746Z,16.56
2023-03-29T17:31:10.419Z,16.59
2023-03-29T17:33:41.697Z,16.60
2023-03-29T17:36:14.117Z,16.61
2023-03-29T17:38:48.900Z,16.61
2023-03-29T17:41:21.471Z,16.62
2023-03-29T17:43:52.492Z,16.61
2023-03-29T17:46:23.864Z,16.59
2023-03-29T17:48:56.058Z,16.56
2023-03-29T17:51:27.881Z,16.51
2023-03-29T17:53:58.608Z,16.43
2023-03-29T17:56:29.891Z,16.43
2023-03-29T17:59:01.516Z,16.41
2023-03-29T18:01:32.989Z,16.39
2023-03-29T18:04:04.798Z,16.36
2023-03-29T18:06:36.470Z,16.32
2023-03-29T18:09:07.865Z,16.31
2023-03-29T18:11:39.590Z,16.31
2023-03-29T18:14:10.654Z,16.33
2023-03-29T18:16:42.827Z,16.34
2023-03-29T18:19:13.919Z,16.33
2023-03-29T18:21:44.869Z,16.32
2023-03-29T18:24:16.316Z,16.31
2023-03-29T18:26:47.150Z,16.29
2023-03-29T18:29:18.309Z,16.28
2023-03-29T18:31:49.591Z,16.29
2023-03-29T18:34:20.851Z,16.30
2023-03-29T18:36:53.746Z,16.32
2023-03-29T18:39:32.156Z,16.34
2023-03-29T18:42:03.739Z,16.36
2023-03-29T18:44:35.095Z,16.35
2023-03-29T18:47:06.239Z,16.36
2023-03-29T18:49:37.871Z,16.35
2023-03-29T18:52:12.005Z,16.34
2023-03-29T18:54:43.156Z,16.34
2023-03-29T18:57:14.896Z,16.33
2023-03-29T18:59:46.046Z,16.33
2023-03-29T19:02:17.245Z,16.34
2023-03-29T19:04:48.526Z,16.35
2023-03-29T19:07:20.816Z,16.35
2023-03-29T19:09:52.255Z,16.34
2023-03-29T19:12:23.632Z,16.35
2023-03-29T19:14:54.959Z,16.34
2023-03-29T19:17:25.928Z,16.33
2023-03-29T19:19:57.593Z,16.33
2023-03-29T19:22:28.476Z,16.32
2023-03-29T19:24:59.612Z,16.31
2023-03-29T19:27:30.738Z,16.30
2023-03-29T19:30:02.464Z,16.28
2023-03-29T19:32:33.854Z,16.27
2023-03-29T19:35:05.654Z,16.26
2023-03-29T19:37:36.774Z,16.24
2023-03-29T19:40:11.200Z,16.23
2023-03-29T19:42:42.463Z,16.21
2023-03-29T19:45:14.958Z,16.20
2023-03-29T19:47:47.762Z,16.20
2023-03-29T19:50:20.131Z,16.18
2023-03-29T19:52:51.754Z,16.18
2023-03-29T19:55:22.787Z,16.19
2023-03-29T19:57:53.777Z,16.19
2023-03-29T20:00:25.507Z,16.20
2023-03-29T20:02:57.010Z,16.20
2023-03-29T20:05:28.654Z,16.19
2023-03-29T20:07:59.465Z,16.19
2023-03-29T20:10:30.666Z,16.18
2023-03-29T20:13:01.758Z,16.17
2023-03-29T20:15:32.660Z,16.16
2023-03-29T20:18:03.588Z,16.16
2023-03-29T20:20:35.865Z,16.15
2023-03-29T20:23:07.233Z,16.16
2023-03-29T20:25:38.713Z,16.15
2023-03-29T20:28:09.966Z,16.14
2023-03-29T20:30:42.234Z,16.14
2023-03-29T20:33:13.880Z,16.15
2023-03-29T20:35:47.231Z,16.15
2023-03-29T20:38:18.327Z,16.15
2023-03-29T20:40:50.294Z,16.16
2023-03-29T20:43:21.745Z,16.16
2023-03-29T20:45:54.350Z,16.18
2023-03-29T20:48:31.467Z,16.19
2023-03-29T20:51:10.563Z,16.19
2023-03-29T20:53:44.619Z,16.20
2023-03-29T20:56:16.071Z,16.19
2023-03-29T20:58:47.897Z,16.17
2023-03-29T21:01:22.039Z,16.17
2023-03-29T21:03:53.455Z,16.16
2023-03-29T21:06:25.614Z,16.13
2023-03-29T21:08:57.508Z,16.03
2023-03-29T21:11:29.184Z,15.85
2023-03-29T21:14:00.348Z,15.77
2023-03-29T21:16:31.744Z,15.78
2023-03-29T21:19:03.055Z,15.80
2023-03-29T21:21:35.091Z,15.85
2023-03-29T21:24:07.231Z,15.89
2023-03-29T21:26:38.320Z,15.91
2023-03-29T21:29:09.647Z,15.94
2023-03-29T21:31:40.971Z,15.98
2023-03-29T21:34:12.595Z,16.01
2023-03-29T21:36:43.865Z,16.02
2023-03-29T21:39:15.578Z,16.03
2023-03-29T21:41:46.515Z,16.03
2023-03-29T21:44:17.946Z,16.04
2023-03-29T21:46:49.485Z,16.03
2023-03-29T21:49:21.121Z,16.04
2023-03-29T21:51:52.716Z,16.05
2023-03-29T21:54:24.460Z,16.05
2023-03-29T21:56:55.728Z,16.04
2023-03-29T21:59:27.969Z,16.04
2023-03-29T22:01:59.605Z,16.04
2023-03-29T22:04:37.092Z,16.03
2023-03-29T22:07:10.845Z,16.01
2023-03-29T22:09:42.518Z,15.99
2023-03-29T22:12:15.796Z,15.97
2023-03-29T22:14:47.190Z,15.96
2023-03-29T22:17:19.535Z,15.93
2023-03-29T22:19:50.764Z,15.91
2023-03-29T22:22:22.113Z,15.90
2023-03-29T22:24:54.721Z,15.89
2023-03-29T22:27:26.024Z,15.87
2023-03-29T22:29:58.744Z,15.85
2023-03-29T22:32:31.690Z,15.82
2023-03-29T22:35:03.101Z,15.80
2023-03-29T22:37:34.667Z,15.79
2023-03-29T22:40:06.501Z,15.78
2023-03-29T22:42:37.897Z,15.77
2023-03-29T22:45:11.706Z,15.74
2023-03-29T22:47:43.391Z,15.72
2023-03-29T22:50:15.158Z,15.72
2023-03-29T22:52:46.742Z,15.71
2023-03-29T22:55:18.577Z,15.69
2023-03-29T22:57:49.630Z,15.68
2023-03-29T23:00:22.897Z,15.67
2023-03-29T23:02:54.152Z,15.67
2023-03-29T23:05:26.003Z,15.66
2023-03-29T23:07:57.403Z,15.64
2023-03-29T23:10:30.625Z,15.63
2023-03-29T23:13:08.987Z,15.61
2023-03-29T23:15:45.337Z,15.59
2023-03-29T23:18:21.174Z,15.56
2023-03-29T23:20:54.605Z,15.53
2023-03-29T23:23:27.366Z,15.49
2023-03-29T23:25:58.456Z,15.47
2023-03-29T23:28:31.568Z,15.45
2023-03-29T23:31:04.785Z,15.41
2023-03-29T23:33:38.701Z,15.36
2023-03-29T23:36:12.367Z,15.33
2023-03-29T23:38:45.589Z,15.31
2023-03-29T23:41:17.748Z,15.27
2023-03-29T23:43:50.620Z,15.23
2023-03-29T23:46:22.121Z,15.19
2023-03-29T23:48:53.591Z,15.16
2023-03-29T23:51:29.029Z,15.15
2023-03-29T23:54:00.187Z,15.11
2023-03-29T23:56:31.179Z,15.09
2023-03-29T23:59:03.304Z,15.08
